createdAt,value
2018-06-09T00:01:24.250Z,21.90
2018-06-09T00:03:52.422Z,21.90
2018-06-09T00:06:20.600Z,21.90
2018-06-09T00:08:49.413Z,21.80
2018-06-09T00:11:17.577Z,21.80
2018-06-09T00:13:45.840Z,21.80
2018-06-09T00:16:14.038Z,21.70
2018-06-09T00:18:42.300Z,21.70
2018-06-09T00:21:10.736Z,21.70
2018-06-09T00:23:38.961Z,21.70
2018-06-09T00:26:07.098Z,21.60
2018-06-09T00:28:35.274Z,21.60
2018-06-09T00:31:03.552Z,21.60
2018-06-09T00:33:31.736Z,21.60
2018-06-09T00:35:59.927Z,21.60
2018-06-09T00:38:28.168Z,21.50
2018-06-09T00:40:56.700Z,21.50
2018-06-09T00:43:24.936Z,21.50
2018-06-09T00:45:53.290Z,21.50
2018-06-09T00:48:21.510Z,21.50
2018-06-09T00:50:49.666Z,21.40
2018-06-09T00:53:17.910Z,21.40
2018-06-09T00:55:46.271Z,21.40
2018-06-09T00:58:14.507Z,21.40
2018-06-09T01:00:42.712Z,21.40
2018-06-09T01:03:11.293Z,21.30
2018-06-09T01:05:39.495Z,21.30
2018-06-09T01:08:07.394Z,21.30
2018-06-09T01:10:35.810Z,21.30
2018-06-09T01:13:04.014Z,21.30
2018-06-09T01:15:32.199Z,21.30
2018-06-09T01:18:00.400Z,21.30
2018-06-09T01:20:28.609Z,21.30
2018-06-09T01:22:56.885Z,21.30
2018-06-09T01:25:25.291Z,21.30
2018-06-09T01:27:53.476Z,21.30
2018-06-09T01:30:21.616Z,21.30
2018-06-09T01:32:49.839Z,21.30
2018-06-09T01:35:18.071Z,21.30
2018-06-09T01:37:46.481Z,21.30
2018-06-09T01:40:14.655Z,21.30
2018-06-09T01:42:42.854Z,21.30
2018-06-09T01:45:11.564Z,21.30
2018-06-09T01:50:07.707Z,21.30
2018-06-09T01:52:35.897Z,21.30
2018-06-09T01:55:04.057Z,21.30
2018-06-09T01:57:32.228Z,21.20
2018-06-09T02:02:28.613Z,21.10
2018-06-09T02:04:56.753Z,21.10
2018-06-09T02:07:24.929Z,21.10
2018-06-09T02:09:53.135Z,21.10
2018-06-09T02:12:21.291Z,21.00
2018-06-09T02:14:49.475Z,21.00
2018-06-09T02:17:17.718Z,21.00
2018-06-09T02:19:45.907Z,21.00
2018-06-09T02:22:14.100Z,21.00
2018-06-09T02:24:42.278Z,21.00
2018-06-09T02:27:10.410Z,21.00
2018-06-09T02:29:38.606Z,21.00
2018-06-09T02:34:35.106Z,21.00
2018-06-09T02:37:03.366Z,21.00
2018-06-09T02:39:31.533Z,21.00
2018-06-09T02:41:59.730Z,20.90
2018-06-09T02:44:27.958Z,20.90
2018-06-09T02:46:56.186Z,20.90
2018-06-09T02:49:24.438Z,20.90
2018-06-09T02:51:52.762Z,20.90
2018-06-09T02:54:21.174Z,20.90
2018-06-09T02:56:49.350Z,20.80
2018-06-09T02:59:17.745Z,20.80
2018-06-09T03:01:45.902Z,20.90
2018-06-09T03:04:14.091Z,20.90
2018-06-09T03:06:42.255Z,21.00
2018-06-09T03:09:10.598Z,21.10
2018-06-09T03:11:38.804Z,21.20
2018-06-09T03:14:07.183Z,21.20
2018-06-09T03:16:35.367Z,21.30
2018-06-09T03:19:03.841Z,21.60
2018-06-09T03:21:32.050Z,21.80
2018-06-09T03:24:00.519Z,22.00
2018-06-09T03:26:28.713Z,22.10
2018-06-09T03:28:56.946Z,22.20
2018-06-09T03:31:25.626Z,22.40
2018-06-09T03:33:53.818Z,22.60
2018-06-09T03:36:22.229Z,23.00
2018-06-09T03:38:50.398Z,23.50
2018-06-09T03:41:18.876Z,24.30
2018-06-09T03:43:47.090Z,25.30
2018-06-09T03:46:15.285Z,26.10
2018-06-09T03:48:43.470Z,26.70
2018-06-09T03:51:11.699Z,27.40
2018-06-09T03:53:39.887Z,27.80
2018-06-09T03:56:08.267Z,27.90
2018-06-09T03:58:36.491Z,28.00
2018-06-09T04:01:04.919Z,28.40
2018-06-09T04:03:33.377Z,28.70
2018-06-09T04:06:01.615Z,29.20
2018-06-09T04:08:29.763Z,29.60
2018-06-09T04:10:58.067Z,30.10
2018-06-09T04:13:26.217Z,30.30
2018-06-09T04:15:54.408Z,30.80
2018-06-09T04:18:22.611Z,31.50
2018-06-09T04:20:51.037Z,31.80
2018-06-09T04:23:19.823Z,32.20
2018-06-09T04:25:48.001Z,32.40
2018-06-09T04:28:16.240Z,32.80
2018-06-09T04:30:44.455Z,33.50
2018-06-09T04:33:12.685Z,34.40
2018-06-09T04:35:40.983Z,35.50
2018-06-09T04:38:09.191Z,36.60
2018-06-09T04:43:06.406Z,38.00
2018-06-09T04:45:34.548Z,38.40
2018-06-09T04:48:03.061Z,38.70
2018-06-09T04:50:31.547Z,39.10
2018-06-09T04:52:59.840Z,39.60
2018-06-09T04:55:28.070Z,40.10
2018-06-09T04:57:56.443Z,40.80
2018-06-09T05:02:52.821Z,42.20
2018-06-09T05:05:21.072Z,42.60
2018-06-09T05:07:49.410Z,43.30
2018-06-09T05:10:17.624Z,43.60
2018-06-09T05:15:14.097Z,43.80
2018-06-09T05:17:42.306Z,44.10
2018-06-09T05:20:10.507Z,44.20
2018-06-09T05:22:38.689Z,44.80
2018-06-09T05:25:06.869Z,45.20
2018-06-09T05:27:35.102Z,45.90
2018-06-09T05:30:03.348Z,46.40
2018-06-09T05:32:31.718Z,46.60
2018-06-09T05:34:59.903Z,46.40
2018-06-09T05:37:28.105Z,45.90
2018-06-09T05:39:56.302Z,45.30
2018-06-09T05:42:24.933Z,45.70
2018-06-09T05:44:53.139Z,45.30
2018-06-09T05:47:21.405Z,45.30
2018-06-09T05:49:49.692Z,45.10
2018-06-09T05:52:17.970Z,46.00
2018-06-09T05:54:46.129Z,45.90
2018-06-09T05:57:14.331Z,46.30
2018-06-09T05:59:42.511Z,46.50
2018-06-09T06:02:10.702Z,47.20
2018-06-09T06:04:39.001Z,47.20
2018-06-09T06:07:07.319Z,46.20
2018-06-09T06:09:35.671Z,45.50
2018-06-09T06:12:03.983Z,45.20
2018-06-09T06:14:32.182Z,45.50
2018-06-09T06:17:00.443Z,45.90
2018-06-09T06:19:28.645Z,46.80
2018-06-09T06:21:56.814Z,48.10
2018-06-09T06:24:24.985Z,49.10
2018-06-09T06:26:53.163Z,50.10
2018-06-09T06:29:21.627Z,50.70
2018-06-09T06:31:49.807Z,50.80
2018-06-09T06:34:18.039Z,50.90
2018-06-09T06:36:46.337Z,51.20
2018-06-09T06:39:14.593Z,50.80
2018-06-09T06:41:42.869Z,50.90
2018-06-09T06:44:11.059Z,51.20
2018-06-09T06:46:39.236Z,51.80
2018-06-09T06:49:07.442Z,52.30
2018-06-09T06:51:35.765Z,53.00
2018-06-09T06:54:03.988Z,53.30
2018-06-09T06:56:32.218Z,53.00
2018-06-09T06:59:00.460Z,53.20
2018-06-09T07:01:28.746Z,52.80
2018-06-09T07:03:56.941Z,52.80
2018-06-09T07:06:25.288Z,53.10
2018-06-09T07:08:53.633Z,53.20
2018-06-09T07:11:21.904Z,52.90
2018-06-09T07:13:50.381Z,52.20
2018-06-09T07:16:18.644Z,52.50
2018-06-09T07:18:47.030Z,52.70
2018-06-09T07:21:15.229Z,52.30
2018-06-09T07:23:43.563Z,51.80
2018-06-09T07:26:11.808Z,51.70
2018-06-09T07:28:40.287Z,51.30
2018-06-09T07:31:08.478Z,50.30
2018-06-09T07:33:36.724Z,49.80
2018-06-09T07:36:05.042Z,49.40
2018-06-09T07:38:33.242Z,49.00
2018-06-09T07:41:01.505Z,48.80
2018-06-09T07:43:29.792Z,48.50
2018-06-09T07:45:57.979Z,47.80
2018-06-09T07:48:26.256Z,46.30
2018-06-09T07:50:54.489Z,45.20
2018-06-09T07:53:22.720Z,44.00
2018-06-09T07:55:51.210Z,43.70
2018-06-09T07:58:19.654Z,43.40
2018-06-09T08:00:47.838Z,43.00
2018-06-09T08:03:16.156Z,42.60
2018-06-09T08:05:44.568Z,42.50
2018-06-09T08:08:12.838Z,42.20
2018-06-09T08:10:41.145Z,41.60
2018-06-09T08:13:09.506Z,41.20
2018-06-09T08:15:37.773Z,41.00
2018-06-09T08:18:06.079Z,40.30
2018-06-09T08:20:34.389Z,40.50
2018-06-09T08:23:02.596Z,40.50
2018-06-09T08:25:30.874Z,40.30
2018-06-09T08:27:59.142Z,40.00
2018-06-09T08:30:27.423Z,40.30
2018-06-09T08:32:55.621Z,40.50
2018-06-09T08:35:23.840Z,40.10
2018-06-09T08:37:52.059Z,39.40
2018-06-09T08:40:20.502Z,38.20
2018-06-09T08:42:48.779Z,36.80
2018-06-09T08:45:17.392Z,35.90
2018-06-09T08:47:45.592Z,35.30
2018-06-09T08:50:13.789Z,34.90
2018-06-09T08:52:42.020Z,34.50
2018-06-09T08:55:10.301Z,34.10
2018-06-09T08:57:38.696Z,34.00
2018-06-09T09:00:07.043Z,33.90
2018-06-09T09:02:35.854Z,33.90
2018-06-09T09:05:04.145Z,33.60
2018-06-09T09:07:32.475Z,33.40
2018-06-09T09:10:00.672Z,33.00
2018-06-09T09:12:28.823Z,32.90
2018-06-09T09:14:58.391Z,32.40
2018-06-09T09:17:26.712Z,32.40
2018-06-09T09:19:54.945Z,32.30
2018-06-09T09:22:23.233Z,32.10
2018-06-09T09:24:51.516Z,31.90
2018-06-09T09:27:19.859Z,31.80
2018-06-09T09:29:48.302Z,31.70
2018-06-09T09:32:16.608Z,31.60
2018-06-09T09:34:44.903Z,31.60
2018-06-09T09:37:13.342Z,31.40
2018-06-09T09:39:41.557Z,31.60
2018-06-09T09:42:09.794Z,31.50
2018-06-09T09:44:37.995Z,31.50
2018-06-09T09:47:06.404Z,31.50
2018-06-09T09:49:35.013Z,31.50
2018-06-09T09:52:03.257Z,31.50
2018-06-09T09:54:31.579Z,31.50
2018-06-09T09:56:59.782Z,31.50
2018-06-09T09:59:28.433Z,31.40
2018-06-09T10:01:56.646Z,31.10
2018-06-09T10:04:24.927Z,31.20
2018-06-09T10:06:53.123Z,31.10
2018-06-09T10:09:21.498Z,31.10
2018-06-09T10:11:49.789Z,31.10
2018-06-09T10:14:18.569Z,31.00
2018-06-09T10:16:46.743Z,31.10
2018-06-09T10:19:15.222Z,31.00
2018-06-09T10:21:43.455Z,30.90
2018-06-09T10:24:11.697Z,30.80
2018-06-09T10:26:40.109Z,30.80
2018-06-09T10:29:08.323Z,30.80
2018-06-09T10:31:36.525Z,30.80
2018-06-09T10:34:04.843Z,30.60
2018-06-09T10:36:33.208Z,30.60
2018-06-09T10:39:01.441Z,30.60
2018-06-09T10:41:29.657Z,30.70
2018-06-09T10:43:57.877Z,30.80
2018-06-09T10:46:26.078Z,30.90
2018-06-09T10:48:54.304Z,30.80
2018-06-09T10:51:22.874Z,30.80
2018-06-09T10:53:51.102Z,30.80
2018-06-09T10:56:19.310Z,30.60
2018-06-09T10:58:47.518Z,30.60
2018-06-09T11:01:16.183Z,30.50
2018-06-09T11:03:44.418Z,30.60
2018-06-09T11:06:12.732Z,30.70
2018-06-09T11:08:41.182Z,30.60
2018-06-09T11:11:09.461Z,30.50
2018-06-09T11:13:37.684Z,30.50
2018-06-09T11:16:05.853Z,30.50
2018-06-09T11:18:34.555Z,30.60
2018-06-09T11:21:03.080Z,30.60
2018-06-09T11:23:31.441Z,30.60
2018-06-09T11:25:59.651Z,30.60
2018-06-09T11:28:27.927Z,30.50
2018-06-09T11:30:56.156Z,30.50
2018-06-09T11:33:24.858Z,30.50
2018-06-09T11:35:54.565Z,30.60
2018-06-09T11:38:22.805Z,30.60
2018-06-09T11:40:51.359Z,30.50
2018-06-09T11:43:19.953Z,30.50
2018-06-09T11:45:48.122Z,30.70
2018-06-09T11:48:16.417Z,30.60
2018-06-09T11:50:45.595Z,30.60
2018-06-09T11:53:13.968Z,30.50
2018-06-09T11:55:42.226Z,30.50
2018-06-09T11:58:10.981Z,30.60
2018-06-09T12:00:39.340Z,30.60
2018-06-09T12:03:07.547Z,30.60
2018-06-09T12:05:35.871Z,30.50
2018-06-09T12:08:04.024Z,30.60
2018-06-09T12:10:32.682Z,30.60
2018-06-09T12:13:00.928Z,30.60
2018-06-09T12:15:30.048Z,30.50
2018-06-09T12:17:58.249Z,30.50
2018-06-09T12:20:26.414Z,30.40
2018-06-09T12:22:54.562Z,30.50
2018-06-09T12:25:22.767Z,30.50
2018-06-09T12:27:51.051Z,30.60
2018-06-09T12:30:19.932Z,30.60
2018-06-09T12:32:48.339Z,30.70
2018-06-09T12:35:16.711Z,30.70
2018-06-09T12:37:44.946Z,30.80
2018-06-09T12:40:13.444Z,30.80
2018-06-09T12:42:41.682Z,30.80
2018-06-09T12:45:10.061Z,30.80
2018-06-09T12:47:38.266Z,30.90
2018-06-09T12:50:06.821Z,31.00
2018-06-09T12:52:35.098Z,31.10
2018-06-09T12:55:03.305Z,31.10
2018-06-09T12:57:31.513Z,31.10
2018-06-09T12:59:59.933Z,31.00
2018-06-09T13:02:28.213Z,31.00
2018-06-09T13:04:56.389Z,31.00
2018-06-09T13:07:24.669Z,31.00
2018-06-09T13:09:53.073Z,30.90
2018-06-09T13:12:21.437Z,30.90
2018-06-09T13:14:49.967Z,30.90
2018-06-09T13:17:18.287Z,31.00
2018-06-09T13:19:46.462Z,31.00
2018-06-09T13:22:14.856Z,31.00
2018-06-09T13:24:43.721Z,31.00
2018-06-09T13:27:11.924Z,30.90
2018-06-09T13:29:40.159Z,31.00
2018-06-09T13:32:08.734Z,30.90
2018-06-09T13:34:36.893Z,30.90
2018-06-09T13:37:05.729Z,30.90
2018-06-09T13:39:34.006Z,31.00
2018-06-09T13:42:02.453Z,31.00
2018-06-09T13:44:30.698Z,31.10
2018-06-09T13:46:59.230Z,31.10
2018-06-09T13:49:27.589Z,31.00
2018-06-09T13:54:24.894Z,31.10
2018-06-09T13:56:53.127Z,31.00
2018-06-09T13:59:21.444Z,30.90
2018-06-09T14:01:49.877Z,30.90
2018-06-09T14:04:18.108Z,30.90
2018-06-09T14:06:46.364Z,30.90
2018-06-09T14:09:14.917Z,30.90
2018-06-09T14:11:43.258Z,30.90
2018-06-09T14:14:11.671Z,31.00
2018-06-09T14:16:40.007Z,31.10
2018-06-09T14:19:08.849Z,31.20
2018-06-09T14:21:37.423Z,31.40
2018-06-09T14:24:05.743Z,31.40
2018-06-09T14:26:34.019Z,31.40
2018-06-09T14:29:02.250Z,31.50
2018-06-09T14:31:30.533Z,31.50
2018-06-09T14:33:58.753Z,31.40
2018-06-09T14:36:27.042Z,31.40
2018-06-09T14:38:55.272Z,31.40
2018-06-09T14:41:23.427Z,31.20
2018-06-09T14:43:51.616Z,31.20
2018-06-09T14:46:19.779Z,31.10
2018-06-09T14:48:47.987Z,31.10
2018-06-09T14:51:16.296Z,31.10
2018-06-09T14:53:44.524Z,31.10
2018-06-09T14:56:12.690Z,31.10
2018-06-09T14:58:40.915Z,31.10
2018-06-09T15:01:09.204Z,31.20
2018-06-09T15:03:37.459Z,31.20
2018-06-09T15:06:05.862Z,31.30
2018-06-09T15:08:34.040Z,31.30
2018-06-09T15:11:02.307Z,31.30
2018-06-09T15:13:30.570Z,31.30
2018-06-09T15:15:58.782Z,31.30
2018-06-09T15:18:26.954Z,31.30
2018-06-09T15:20:55.246Z,31.30
2018-06-09T15:23:23.436Z,31.20
2018-06-09T15:25:51.673Z,31.10
2018-06-09T15:28:19.914Z,31.00
2018-06-09T15:30:48.117Z,30.90
2018-06-09T15:33:17.057Z,30.90
2018-06-09T15:35:45.214Z,30.80
2018-06-09T15:38:13.459Z,30.80
2018-06-09T15:40:41.670Z,30.80
2018-06-09T15:43:09.929Z,30.70
2018-06-09T15:45:38.184Z,30.60
2018-06-09T15:48:06.397Z,30.60
2018-06-09T15:50:35.156Z,30.70
2018-06-09T15:53:03.377Z,30.60
2018-06-09T15:55:31.618Z,30.70
2018-06-09T15:57:59.830Z,30.60
2018-06-09T16:00:28.090Z,30.60
2018-06-09T16:02:56.325Z,30.50
2018-06-09T16:05:24.534Z,30.50
2018-06-09T16:07:52.835Z,30.60
2018-06-09T16:10:21.079Z,30.70
2018-06-09T16:12:49.441Z,30.60
2018-06-09T16:15:17.793Z,30.60
2018-06-09T16:17:46.093Z,30.60
2018-06-09T16:20:14.384Z,30.70
2018-06-09T16:22:43.160Z,30.60
2018-06-09T16:25:11.402Z,30.70
2018-06-09T16:27:39.981Z,30.70
2018-06-09T16:30:08.346Z,30.60
2018-06-09T16:32:36.577Z,30.60
2018-06-09T16:35:04.757Z,30.60
2018-06-09T16:37:32.920Z,30.60
2018-06-09T16:40:01.077Z,30.50
2018-06-09T16:42:29.284Z,30.50
2018-06-09T16:44:57.745Z,30.40
2018-06-09T16:47:26.079Z,30.30
2018-06-09T16:49:54.412Z,30.30
2018-06-09T16:52:22.675Z,30.30
2018-06-09T16:54:50.921Z,30.30
2018-06-09T16:57:20.119Z,30.30
2018-06-09T16:59:48.329Z,30.30
2018-06-09T17:02:16.844Z,30.30
2018-06-09T17:04:45.505Z,30.30
2018-06-09T17:07:20.508Z,30.30
2018-06-09T17:09:49.053Z,30.30
2018-06-09T17:12:17.229Z,30.30
2018-06-09T17:14:45.480Z,30.30
2018-06-09T17:17:13.726Z,30.30
2018-06-09T17:19:41.939Z,30.30
2018-06-09T17:22:10.645Z,30.20
2018-06-09T17:24:38.985Z,30.20
2018-06-09T17:27:07.195Z,30.20
2018-06-09T17:29:35.535Z,30.20
2018-06-09T17:32:04.084Z,30.10
2018-06-09T17:34:32.375Z,30.00
2018-06-09T17:37:00.638Z,30.00
2018-06-09T17:39:28.879Z,30.00
2018-06-09T17:41:57.086Z,30.00
2018-06-09T17:44:25.913Z,30.00
2018-06-09T17:46:54.175Z,30.00
2018-06-09T17:49:22.369Z,30.00
2018-06-09T17:51:50.616Z,29.90
2018-06-09T17:54:18.777Z,29.80
2018-06-09T17:56:46.955Z,29.80
2018-06-09T17:59:15.188Z,29.70
2018-06-09T18:01:43.359Z,29.60
2018-06-09T18:04:11.550Z,29.60
2018-06-09T18:06:39.916Z,29.60
2018-06-09T18:09:09.207Z,29.50
2018-06-09T18:11:37.488Z,29.40
2018-06-09T18:14:05.727Z,29.40
2018-06-09T18:16:34.081Z,29.40
2018-06-09T18:19:02.510Z,29.30
2018-06-09T18:21:30.734Z,29.40
2018-06-09T18:23:59.226Z,29.40
2018-06-09T18:26:27.580Z,29.50
2018-06-09T18:28:55.825Z,29.40
2018-06-09T18:31:24.043Z,29.40
2018-06-09T18:33:52.334Z,29.20
2018-06-09T18:36:20.629Z,28.90
2018-06-09T18:38:48.818Z,28.70
2018-06-09T18:41:17.002Z,28.50
2018-06-09T18:43:45.429Z,28.40
2018-06-09T18:46:13.584Z,28.30
2018-06-09T18:48:41.833Z,28.20
2018-06-09T18:51:10.098Z,28.20
2018-06-09T18:53:38.326Z,28.10
2018-06-09T18:56:06.522Z,28.00
2018-06-09T18:58:34.818Z,27.90
2018-06-09T19:01:03.657Z,27.90
2018-06-09T19:03:31.861Z,27.80
2018-06-09T19:06:00.183Z,27.70
2018-06-09T19:08:28.486Z,27.60
2018-06-09T19:10:56.695Z,27.50
2018-06-09T19:13:24.940Z,27.50
2018-06-09T19:15:53.208Z,27.40
2018-06-09T19:18:21.458Z,27.30
2018-06-09T19:20:49.668Z,27.20
2018-06-09T19:23:18.119Z,27.10
2018-06-09T19:25:46.385Z,27.00
2018-06-09T19:28:14.632Z,26.90
2018-06-09T19:30:42.835Z,26.80
2018-06-09T19:33:11.249Z,26.70
2018-06-09T19:35:39.645Z,26.60
2018-06-09T19:38:08.529Z,26.50
2018-06-09T19:40:36.792Z,26.40
2018-06-09T19:43:05.207Z,26.40
2018-06-09T19:45:33.385Z,26.30
2018-06-09T19:48:01.591Z,26.30
2018-06-09T19:50:29.926Z,26.20
2018-06-09T19:52:58.873Z,26.20
2018-06-09T19:55:27.636Z,26.10
2018-06-09T19:57:55.898Z,26.10
2018-06-09T20:00:24.360Z,26.00
2018-06-09T20:02:52.936Z,26.00
2018-06-09T20:05:21.244Z,25.90
2018-06-09T20:07:49.696Z,25.90
2018-06-09T20:10:18.035Z,25.80
2018-06-09T20:12:46.355Z,25.80
2018-06-09T20:15:14.711Z,25.80
2018-06-09T20:17:43.374Z,25.70
2018-06-09T20:20:11.587Z,25.70
2018-06-09T20:22:39.806Z,25.60
2018-06-09T20:25:08.082Z,25.60
2018-06-09T20:27:36.801Z,25.60
2018-06-09T20:30:05.339Z,25.60
2018-06-09T20:32:33.632Z,25.50
2018-06-09T20:35:02.568Z,25.50
2018-06-09T20:37:31.325Z,25.40
2018-06-09T20:40:00.063Z,25.40
2018-06-09T20:42:28.472Z,25.40
2018-06-09T20:44:57.152Z,25.40
2018-06-09T20:47:25.409Z,25.30
2018-06-09T20:49:54.154Z,25.30
2018-06-09T20:52:24.370Z,25.20
2018-06-09T20:54:53.402Z,25.20
2018-06-09T20:57:21.642Z,25.20
2018-06-09T20:59:49.913Z,25.20
2018-06-09T21:02:18.147Z,25.20
2018-06-09T21:04:46.459Z,25.20
2018-06-09T21:07:14.698Z,25.10
2018-06-09T21:09:42.916Z,25.10
2018-06-09T21:12:11.197Z,25.10
2018-06-09T21:17:08.381Z,25.00
2018-06-09T21:19:42.981Z,25.00
2018-06-09T21:22:12.349Z,24.90
2018-06-09T21:24:40.524Z,24.90
2018-06-09T21:27:14.385Z,24.90
2018-06-09T21:29:49.765Z,24.90
2018-06-09T21:32:23.506Z,24.80
2018-06-09T21:35:04.377Z,24.80
2018-06-09T21:37:39.968Z,24.80
2018-06-09T21:40:19.498Z,24.80
2018-06-09T21:45:28.442Z,24.80
2018-06-09T21:47:56.821Z,24.80
2018-06-09T21:50:25.273Z,24.90
2018-06-09T21:52:53.614Z,25.00
2018-06-09T21:55:22.120Z,25.00
2018-06-09T21:57:50.556Z,25.10
2018-06-09T22:00:19.567Z,25.10
2018-06-09T22:02:47.954Z,25.10
2018-06-09T22:05:19.943Z,25.10
2018-06-09T22:07:48.204Z,25.00
2018-06-09T22:10:16.788Z,24.90
2018-06-09T22:12:45.086Z,24.80
2018-06-09T22:15:13.542Z,24.80
2018-06-09T22:17:41.919Z,24.70
2018-06-09T22:20:10.163Z,24.70
2018-06-09T22:22:38.600Z,24.70
2018-06-09T22:25:07.778Z,24.60
2018-06-09T22:27:35.954Z,24.60
2018-06-09T22:30:04.149Z,24.50
2018-06-09T22:32:32.403Z,24.50
2018-06-09T22:35:00.749Z,24.50
2018-06-09T22:37:28.947Z,24.40
2018-06-09T22:39:57.342Z,24.40
2018-06-09T22:42:25.524Z,24.40
2018-06-09T22:44:53.848Z,24.30
2018-06-09T22:47:22.025Z,24.30
2018-06-09T22:49:50.233Z,24.30
2018-06-09T22:52:18.421Z,24.20
2018-06-09T22:54:46.662Z,24.20
2018-06-09T22:57:14.965Z,24.20
2018-06-09T22:59:43.152Z,24.20
2018-06-09T23:02:11.494Z,24.10
2018-06-09T23:04:39.683Z,24.10
2018-06-09T23:07:07.927Z,24.00
2018-06-09T23:09:36.352Z,24.00
2018-06-09T23:12:05.058Z,24.00
2018-06-09T23:14:33.367Z,23.90
2018-06-09T23:17:01.645Z,23.90
2018-06-09T23:19:29.849Z,23.90
2018-06-09T23:21:58.208Z,23.80
2018-06-09T23:24:26.404Z,23.80
2018-06-09T23:26:54.668Z,23.80
2018-06-09T23:29:22.943Z,23.70
2018-06-09T23:34:19.420Z,23.70
2018-06-09T23:36:48.363Z,23.60
2018-06-09T23:39:16.585Z,23.60
2018-06-09T23:41:44.762Z,23.60
2018-06-09T23:44:12.908Z,23.50
2018-06-09T23:46:41.173Z,23.50
2018-06-09T23:49:09.432Z,23.50
2018-06-09T23:51:37.698Z,23.50
2018-06-09T23:54:06.088Z,23.40
2018-06-09T23:56:34.268Z,23.40
2018-06-09T23:59:02.566Z,23.30
